Time;durP1;ratioP1;P1;durP2;ratioP2;P2;SDS_P1;SDS_P2;PMS_P1;PMS_P2;Temp;Humidity;BMP_temperature;BMP_pressure;BME280_temperature;BME280_humidity;BME280_pressure;Samples;Min_cycle;Max_cycle;Signal;HPM_P1;HPM_P2
2021/03/04 00:01:54;;;;;;;22.93;15.20;;;9.90;99.90;;;;;;5117462;28;20219;-70
2021/03/04 00:04:21;;;;;;;25.77;16.50;;;9.80;99.90;;;;;;5117109;28;20227;-69
2021/03/04 00:06:47;;;;;;;25.97;15.37;;;9.80;99.90;;;;;;5114962;28;20229;-71
2021/03/04 00:09:13;;;;;;;25.47;15.90;;;9.80;99.90;;;;;;5115154;28;20233;-70
2021/03/04 00:11:40;;;;;;;24.60;15.80;;;9.80;99.90;;;;;;5115530;28;20204;-70
2021/03/04 00:14:06;;;;;;;24.57;15.60;;;9.90;99.90;;;;;;5115293;28;20200;-69
2021/03/04 00:16:32;;;;;;;25.13;15.60;;;9.90;99.90;;;;;;5115058;28;20219;-71
2021/03/04 00:18:59;;;;;;;22.93;15.07;;;9.90;99.90;;;;;;5115374;28;20211;-69
2021/03/04 00:21:25;;;;;;;22.20;15.10;;;9.90;99.90;;;;;;5114810;28;20204;-70
2021/03/04 00:23:51;;;;;;;23.83;16.03;;;9.90;99.90;;;;;;5114768;28;20207;-70
2021/03/04 00:26:17;;;;;;;25.13;14.93;;;10.00;99.90;;;;;;5114534;28;20253;-70
2021/03/04 00:28:44;;;;;;;24.03;16.40;;;10.00;99.90;;;;;;5114304;28;20308;-70
2021/03/04 00:31:10;;;;;;;22.67;15.73;;;10.00;99.90;;;;;;5114409;28;20216;-68
2021/03/04 00:33:36;;;;;;;27.67;15.73;;;10.00;99.90;;;;;;5113712;28;20211;-69
2021/03/04 00:36:03;;;;;;;23.97;15.77;;;9.90;99.90;;;;;;5113828;28;20570;-63
2021/03/04 00:38:29;;;;;;;23.97;15.80;;;10.00;99.90;;;;;;5113539;28;20239;-69
2021/03/04 00:40:55;;;;;;;24.00;15.77;;;10.00;99.90;;;;;;5113715;28;20207;-69
2021/03/04 00:43:21;;;;;;;23.17;15.07;;;9.90;99.90;;;;;;5113850;28;20234;-69
2021/03/04 00:45:48;;;;;;;22.13;15.70;;;9.80;99.90;;;;;;5114251;28;20226;-69
2021/03/04 00:48:15;;;;;;;26.50;15.97;;;9.80;99.90;;;;;;5113998;28;20578;-69
2021/03/04 00:50:42;;;;;;;24.37;15.17;;;9.80;99.90;;;;;;5114505;28;20214;-69
2021/03/04 00:53:08;;;;;;;22.10;15.43;;;9.90;99.90;;;;;;5113972;28;20207;-69
2021/03/04 00:55:34;;;;;;;23.63;15.50;;;9.90;99.90;;;;;;5112903;28;20235;-69
2021/03/04 00:58:01;;;;;;;23.80;16.20;;;9.90;99.90;;;;;;5113761;28;20211;-68
2021/03/04 01:00:27;;;;;;;22.90;16.20;;;9.90;99.90;;;;;;5114420;28;20208;-69
2021/03/04 01:02:54;;;;;;;21.43;14.03;;;9.90;99.90;;;;;;5113686;28;20284;-69
2021/03/04 01:05:21;;;;;;;25.47;15.83;;;9.90;99.90;;;;;;5113044;28;20246;-69
2021/03/04 01:07:47;;;;;;;22.60;15.90;;;9.90;99.90;;;;;;5112803;28;20207;-68
2021/03/04 01:10:18;;;;;;;22.50;15.27;;;9.90;99.90;;;;;;5113662;28;20208;-68
2021/03/04 01:12:44;;;;;;;24.47;16.17;;;9.90;99.90;;;;;;5113351;28;20214;-68
2021/03/04 01:15:13;;;;;;;25.70;15.07;;;9.90;99.90;;;;;;5113167;28;20226;-69
2021/03/04 01:17:40;;;;;;;28.40;16.23;;;10.00;99.90;;;;;;5113696;28;20211;-68
2021/03/04 01:20:09;;;;;;;23.63;16.10;;;10.00;99.90;;;;;;5113218;28;20203;-69
2021/03/04 01:22:35;;;;;;;23.03;14.97;;;10.00;99.90;;;;;;5112774;28;20227;-69
2021/03/04 01:25:02;;;;;;;25.03;15.90;;;9.90;99.90;;;;;;5112855;28;20606;-69
2021/03/04 01:27:29;;;;;;;23.63;14.97;;;9.90;99.90;;;;;;5113167;28;20208;-69
2021/03/04 01:29:55;;;;;;;23.43;14.77;;;9.90;99.90;;;;;;5112842;28;20583;-69
2021/03/04 01:32:21;;;;;;;22.27;14.53;;;9.80;99.90;;;;;;5113695;28;20214;-70
2021/03/04 01:34:47;;;;;;;22.60;14.43;;;9.80;99.90;;;;;;5113099;28;20228;-69
2021/03/04 01:37:14;;;;;;;23.27;15.47;;;9.80;99.90;;;;;;5113260;28;20256;-71
2021/03/04 01:39:40;;;;;;;25.30;16.87;;;9.80;99.90;;;;;;5113123;28;20215;-69
2021/03/04 01:42:07;;;;;;;22.53;14.90;;;9.70;99.90;;;;;;5113334;28;20219;-69
2021/03/04 01:44:34;;;;;;;22.27;15.70;;;9.70;99.90;;;;;;5112201;28;20219;-69
2021/03/04 01:47:00;;;;;;;25.80;16.33;;;9.70;99.90;;;;;;5113375;28;20207;-69
2021/03/04 01:49:27;;;;;;;25.53;15.63;;;9.70;99.90;;;;;;5113134;28;20203;-70
2021/03/04 01:51:53;;;;;;;25.50;15.40;;;9.70;99.90;;;;;;5113763;28;20210;-70
2021/03/04 01:54:20;;;;;;;26.93;16.50;;;9.70;99.90;;;;;;5113456;28;20219;-69
2021/03/04 01:56:46;;;;;;;22.70;15.50;;;9.70;99.90;;;;;;5113130;28;20207;-69
2021/03/04 01:59:12;;;;;;;21.93;14.07;;;9.70;99.90;;;;;;5112839;28;20207;-69
2021/03/04 02:05:01;;;;;;;24.27;14.80;;;9.70;99.90;;;;;;5111933;28;20202;-69
2021/03/04 02:07:40;;;;;;;21.17;14.43;;;9.70;99.90;;;;;;5112227;28;20203;-69
2021/03/04 02:10:13;;;;;;;22.10;15.00;;;9.50;99.90;;;;;;5113289;28;20208;-69
2021/03/04 02:12:47;;;;;;;21.33;14.33;;;9.50;99.90;;;;;;5115276;28;20282;-69
2021/03/04 02:15:22;;;;;;;21.50;15.10;;;9.50;99.90;;;;;;5116737;28;20228;-69
2021/03/04 02:17:50;;;;;;;19.10;13.77;;;9.50;99.90;;;;;;5115124;28;20222;-70
2021/03/04 02:20:29;;;;;;;27.13;15.60;;;9.50;99.90;;;;;;5114991;28;20200;-70
2021/03/04 02:23:33;;;;;;;21.57;14.67;;;9.40;99.90;;;;;;5115034;28;20233;-69
2021/03/04 02:26:10;;;;;;;22.90;14.37;;;9.40;99.90;;;;;;5112496;28;20223;-69
2021/03/04 02:28:38;;;;;;;22.33;14.17;;;9.40;99.90;;;;;;5111434;28;20625;-69
2021/03/04 02:31:08;;;;;;;22.97;14.77;;;9.40;99.90;;;;;;5114679;28;20203;-69
2021/03/04 02:33:36;;;;;;;22.50;14.33;;;9.40;99.90;;;;;;5115412;28;20211;-69
2021/03/04 02:36:04;;;;;;;21.13;13.93;;;9.30;99.90;;;;;;5115261;28;20228;-68
2021/03/04 02:38:31;;;;;;;19.10;13.47;;;9.30;99.90;;;;;;5115033;28;20450;-69
2021/03/04 02:41:00;;;;;;;17.60;13.27;;;9.30;99.90;;;;;;5115371;28;20681;-69
2021/03/04 02:43:27;;;;;;;23.10;13.07;;;9.20;99.90;;;;;;5115317;28;20271;-69
2021/03/04 02:45:55;;;;;;;18.60;13.00;;;9.10;99.90;;;;;;5115378;28;20227;-69
2021/03/04 02:48:22;;;;;;;22.60;13.80;;;9.00;99.90;;;;;;5115847;28;20218;-69
2021/03/04 02:50:52;;;;;;;23.63;13.40;;;9.00;99.90;;;;;;5115197;28;20211;-69
2021/03/04 02:53:18;;;;;;;18.23;13.03;;;9.00;99.90;;;;;;5115063;28;20195;-69
2021/03/04 02:55:45;;;;;;;23.50;13.33;;;9.00;99.90;;;;;;5115096;28;20239;-69
2021/03/04 02:58:13;;;;;;;18.10;12.93;;;8.90;99.90;;;;;;5114765;28;20218;-69
2021/03/04 03:00:39;;;;;;;17.60;13.27;;;8.90;99.90;;;;;;5115098;28;20212;-69
2021/03/04 03:03:10;;;;;;;21.17;13.23;;;8.90;99.90;;;;;;5115299;28;20249;-69
2021/03/04 03:05:39;;;;;;;20.60;13.10;;;8.80;99.90;;;;;;5114766;28;20232;-69
2021/03/04 03:08:07;;;;;;;17.47;12.90;;;8.70;99.90;;;;;;5114971;28;20252;-69
2021/03/04 03:10:34;;;;;;;20.30;13.10;;;8.60;99.90;;;;;;5114748;28;20215;-69
2021/03/04 03:13:02;;;;;;;20.47;13.77;;;8.50;99.90;;;;;;5116102;28;20211;-68
2021/03/04 03:15:30;;;;;;;16.93;12.30;;;8.50;99.90;;;;;;5118499;28;20226;-69
2021/03/04 03:17:56;;;;;;;21.47;13.47;;;8.50;99.90;;;;;;5119633;28;20199;-69
2021/03/04 03:20:24;;;;;;;22.47;13.70;;;8.50;99.90;;;;;;5118134;28;20227;-68
2021/03/04 03:22:52;;;;;;;21.50;13.30;;;8.60;99.90;;;;;;5119494;28;20219;-68
2021/03/04 03:25:19;;;;;;;19.90;14.17;;;8.60;99.90;;;;;;5117652;28;20234;-69
2021/03/04 03:27:46;;;;;;;22.40;12.50;;;8.60;99.90;;;;;;5116953;28;20216;-68
2021/03/04 03:30:16;;;;;;;21.03;12.23;;;8.40;99.90;;;;;;5116105;28;20222;-69
2021/03/04 03:32:46;;;;;;;19.03;12.33;;;8.40;99.90;;;;;;5115390;28;20206;-70
2021/03/04 03:35:14;;;;;;;25.37;13.10;;;8.30;99.90;;;;;;5114986;28;20226;-69
2021/03/04 03:37:42;;;;;;;18.17;11.77;;;8.10;99.90;;;;;;5115320;28;20199;-70
2021/03/04 03:40:10;;;;;;;17.87;12.77;;;8.00;99.90;;;;;;5114997;28;20218;-70
2021/03/04 03:42:38;;;;;;;16.07;12.50;;;7.90;99.90;;;;;;5113529;28;20223;-69
2021/03/04 03:45:06;;;;;;;19.03;12.80;;;7.90;99.90;;;;;;5115022;28;20718;-68
2021/03/04 03:47:34;;;;;;;19.60;12.87;;;7.90;99.90;;;;;;5114814;28;20264;-68
2021/03/04 03:50:01;;;;;;;22.60;13.23;;;7.70;99.90;;;;;;5115116;28;20239;-69
2021/03/04 03:52:29;;;;;;;21.23;13.07;;;7.70;99.90;;;;;;5115152;28;20200;-68
2021/03/04 03:54:57;;;;;;;19.23;13.37;;;7.70;99.90;;;;;;5114535;28;20231;-68
2021/03/04 03:57:24;;;;;;;20.77;14.80;;;7.80;99.90;;;;;;5114483;28;20207;-68
2021/03/04 03:59:51;;;;;;;30.23;17.93;;;7.90;99.90;;;;;;5114249;28;20199;-68
2021/03/04 04:02:18;;;;;;;20.63;13.97;;;8.00;99.90;;;;;;5114402;28;20365;-68
2021/03/04 04:04:44;;;;;;;23.13;16.23;;;8.00;99.90;;;;;;5114048;28;20238;-68
2021/03/04 04:07:12;;;;;;;25.50;15.60;;;8.00;99.90;;;;;;5114036;28;20208;-68
2021/03/04 04:09:39;;;;;;;21.20;14.03;;;8.10;99.90;;;;;;5114022;28;20207;-68
2021/03/04 04:12:07;;;;;;;20.90;14.27;;;8.20;99.90;;;;;;5114348;28;20204;-68
2021/03/04 04:14:34;;;;;;;19.07;13.53;;;8.20;99.90;;;;;;5113715;28;20224;-69
2021/03/04 04:17:01;;;;;;;18.80;13.67;;;8.20;99.90;;;;;;5113368;28;20701;-67
2021/03/04 04:19:27;;;;;;;19.30;13.70;;;8.30;99.90;;;;;;5113410;28;20273;-69
2021/03/04 04:21:54;;;;;;;22.20;16.13;;;8.30;99.90;;;;;;5113784;28;20219;-67
2021/03/04 04:24:20;;;;;;;24.83;16.23;;;8.40;99.90;;;;;;5113630;28;20227;-68
2021/03/04 04:26:46;;;;;;;19.63;13.73;;;8.40;99.90;;;;;;5113609;28;20241;-68
2021/03/04 04:29:13;;;;;;;24.40;16.67;;;8.40;99.90;;;;;;5113723;28;20215;-68
2021/03/04 04:31:40;;;;;;;22.97;15.60;;;8.30;99.90;;;;;;5114041;28;20693;-68
2021/03/04 04:34:06;;;;;;;20.70;12.70;;;8.20;99.90;;;;;;5113369;28;20276;-68
2021/03/04 04:36:32;;;;;;;18.13;11.60;;;8.10;99.90;;;;;;5113198;28;20204;-68
2021/03/04 04:38:58;;;;;;;35.03;23.47;;;8.10;99.90;;;;;;5113505;28;20203;-67
2021/03/04 04:41:24;;;;;;;21.17;14.20;;;8.10;99.90;;;;;;5113922;28;20574;-67
2021/03/04 04:43:51;;;;;;;20.67;12.83;;;8.10;99.90;;;;;;5113406;28;20219;-68
2021/03/04 04:46:18;;;;;;;23.13;16.90;;;8.10;99.90;;;;;;5113224;28;20230;-68
2021/03/04 04:48:44;;;;;;;19.03;13.97;;;7.90;99.90;;;;;;5113281;28;20222;-67
2021/03/04 04:51:10;;;;;;;18.17;12.80;;;7.80;99.90;;;;;;5113704;28;20211;-68
2021/03/04 04:53:37;;;;;;;18.00;12.50;;;7.80;99.90;;;;;;5113094;28;20218;-68
2021/03/04 04:56:03;;;;;;;21.60;13.17;;;7.60;99.90;;;;;;5113541;28;20280;-67
2021/03/04 04:58:29;;;;;;;18.33;12.17;;;7.50;99.90;;;;;;5113022;28;20211;-69
2021/03/04 05:00:56;;;;;;;17.80;11.73;;;7.40;99.90;;;;;;5113049;28;20613;-69
2021/03/04 05:03:23;;;;;;;18.80;12.53;;;7.40;99.90;;;;;;5113106;28;20235;-69
2021/03/04 05:05:49;;;;;;;17.67;11.67;;;7.30;99.90;;;;;;5113065;28;20227;-68
2021/03/04 05:08:15;;;;;;;20.37;12.63;;;7.30;99.90;;;;;;5113265;28;20225;-67
2021/03/04 05:10:41;;;;;;;17.77;12.43;;;7.20;99.90;;;;;;5113599;28;20199;-67
2021/03/04 05:13:08;;;;;;;15.70;11.30;;;7.30;99.90;;;;;;5113700;28;20207;-68
2021/03/04 05:15:34;;;;;;;22.70;12.13;;;7.40;99.90;;;;;;5113547;28;20269;-68
2021/03/04 05:18:00;;;;;;;17.13;11.70;;;7.40;99.90;;;;;;5113393;28;20585;-68
2021/03/04 05:20:27;;;;;;;18.13;12.20;;;7.50;99.90;;;;;;5113107;28;20207;-68
2021/03/04 05:22:53;;;;;;;17.50;11.43;;;7.40;99.90;;;;;;5112859;28;20233;-68
2021/03/04 05:25:20;;;;;;;15.43;10.87;;;7.40;99.90;;;;;;5113191;28;20269;-68
2021/03/04 05:27:46;;;;;;;17.77;11.00;;;7.40;99.90;;;;;;5112462;28;20294;-67
2021/03/04 05:30:13;;;;;;;16.50;11.87;;;7.50;99.90;;;;;;5112813;28;20622;-67
2021/03/04 05:32:39;;;;;;;18.70;10.93;;;7.50;99.90;;;;;;5112424;28;20231;-68
2021/03/04 05:35:07;;;;;;;15.07;10.33;;;7.50;99.90;;;;;;5112625;28;20780;-68
2021/03/04 05:37:34;;;;;;;20.77;10.87;;;7.50;99.90;;;;;;5113242;28;20206;-68
2021/03/04 05:40:00;;;;;;;17.87;11.40;;;7.40;99.90;;;;;;5113362;28;20203;-68
2021/03/04 05:42:31;;;;;;;17.33;12.10;;;7.50;99.90;;;;;;5112616;28;20220;-69
2021/03/04 05:44:57;;;;;;;22.47;13.40;;;7.50;99.90;;;;;;5113484;28;20227;-68
2021/03/04 05:47:24;;;;;;;15.97;11.80;;;7.60;99.90;;;;;;5113433;28;20204;-68
2021/03/04 05:49:59;;;;;;;20.37;12.30;;;7.70;99.90;;;;;;5113783;28;20203;-67
2021/03/04 05:52:26;;;;;;;21.10;13.00;;;7.60;99.90;;;;;;5113488;28;20359;-67
2021/03/04 05:54:55;;;;;;;22.07;12.50;;;7.60;99.90;;;;;;5112950;28;20227;-68
2021/03/04 05:57:22;;;;;;;22.53;12.80;;;7.50;99.90;;;;;;5113432;28;20203;-68
2021/03/04 05:59:52;;;;;;;21.27;12.40;;;7.40;99.90;;;;;;5113197;28;20233;-68
2021/03/04 06:02:21;;;;;;;18.03;12.80;;;7.20;99.90;;;;;;5113635;28;20223;-68
2021/03/04 06:04:48;;;;;;;21.63;12.63;;;7.10;99.90;;;;;;5112772;28;20235;-67
2021/03/04 06:07:14;;;;;;;21.13;13.27;;;7.10;99.90;;;;;;5113598;28;20725;-68
2021/03/04 06:09:40;;;;;;;17.60;11.80;;;7.00;99.90;;;;;;5113539;28;20224;-69
2021/03/04 06:12:09;;;;;;;21.47;13.03;;;7.00;99.90;;;;;;5113980;28;20229;-68
2021/03/04 06:14:36;;;;;;;20.70;11.97;;;7.00;99.90;;;;;;5113839;28;20223;-68
2021/03/04 06:17:13;;;;;;;28.50;17.57;;;7.10;99.90;;;;;;5113598;28;20210;-68
2021/03/04 06:19:39;;;;;;;19.23;11.80;;;7.10;99.90;;;;;;5113618;28;20276;-68
2021/03/04 06:22:06;;;;;;;19.10;11.90;;;7.20;99.90;;;;;;5113406;28;20219;-68
2021/03/04 06:24:32;;;;;;;17.87;11.77;;;7.10;99.90;;;;;;5112609;28;20604;-67
2021/03/04 06:26:58;;;;;;;22.37;12.57;;;7.00;99.90;;;;;;5112807;28;20207;-67
2021/03/04 06:29:27;;;;;;;19.80;12.33;;;7.00;99.90;;;;;;5112513;28;20208;-68
2021/03/04 06:32:03;;;;;;;18.63;11.93;;;7.00;99.90;;;;;;5112808;28;20215;-68
2021/03/04 06:34:30;;;;;;;20.17;12.20;;;7.00;99.90;;;;;;5112795;28;20234;-69
2021/03/04 06:36:59;;;;;;;19.67;12.00;;;7.00;99.90;;;;;;5114125;28;20207;-68
2021/03/04 06:39:26;;;;;;;16.57;11.40;;;7.10;99.90;;;;;;5114012;28;20211;-67
2021/03/04 06:42:00;;;;;;;21.30;11.73;;;7.20;99.90;;;;;;5113051;28;20290;-67
2021/03/04 06:44:27;;;;;;;16.53;11.10;;;7.20;99.90;;;;;;5113111;28;20227;-68
2021/03/04 06:46:53;;;;;;;13.87;10.33;;;7.10;99.90;;;;;;5113032;28;20617;-69
2021/03/04 06:49:20;;;;;;;19.00;11.90;;;7.10;99.90;;;;;;5112217;28;20212;-70
2021/03/04 06:51:46;;;;;;;17.40;11.10;;;7.20;99.90;;;;;;5113019;28;20675;-68
2021/03/04 06:54:22;;;;;;;20.30;10.73;;;7.30;99.90;;;;;;5112661;28;20660;-68
2021/03/04 06:56:48;;;;;;;21.27;11.50;;;7.30;99.90;;;;;;5113194;28;20227;-69
2021/03/04 06:59:14;;;;;;;20.87;12.23;;;7.30;99.90;;;;;;5113155;28;20208;-69
2021/03/04 07:01:41;;;;;;;21.37;12.10;;;7.20;99.90;;;;;;5113421;28;20218;-67
2021/03/04 07:04:13;;;;;;;18.37;11.30;;;7.20;99.90;;;;;;5112861;28;20734;-67
2021/03/04 07:06:40;;;;;;;14.77;11.00;;;7.20;99.90;;;;;;5114005;28;20207;-68
2021/03/04 07:09:07;;;;;;;20.67;11.97;;;7.30;99.90;;;;;;5113379;28;20486;-66
2021/03/04 07:11:35;;;;;;;25.03;11.83;;;7.40;99.90;;;;;;5113239;28;20203;-67
2021/03/04 07:14:03;;;;;;;18.47;11.63;;;7.50;99.90;;;;;;5113495;28;20214;-68
2021/03/04 07:16:33;;;;;;;18.87;11.70;;;7.70;99.90;;;;;;5115932;28;20204;-68
2021/03/04 07:19:02;;;;;;;15.47;11.00;;;7.90;99.90;;;;;;5117098;28;20257;-68
2021/03/04 07:21:33;;;;;;;19.47;10.53;;;8.10;99.90;;;;;;5116267;28;20256;-68
2021/03/04 07:24:03;;;;;;;17.83;11.67;;;8.20;99.90;;;;;;5116037;28;20223;-68
2021/03/04 07:26:30;;;;;;;23.80;11.27;;;8.40;99.90;;;;;;5117245;28;20204;-68
2021/03/04 07:28:58;;;;;;;17.70;11.80;;;8.50;99.90;;;;;;5117097;28;20210;-69
2021/03/04 07:31:24;;;;;;;20.63;12.17;;;8.60;99.90;;;;;;5116462;28;20204;-68
2021/03/04 07:33:52;;;;;;;16.60;11.87;;;8.60;99.90;;;;;;5116364;28;20211;-68
2021/03/04 07:36:21;;;;;;;21.87;10.93;;;8.70;99.90;;;;;;5117767;28;20231;-68
2021/03/04 07:38:54;;;;;;;19.77;11.80;;;9.00;99.90;;;;;;5116760;28;20238;-68
2021/03/04 07:41:21;;;;;;;15.63;10.87;;;9.20;99.90;;;;;;5116294;28;20208;-68
2021/03/04 07:43:49;;;;;;;15.07;11.37;;;9.60;99.90;;;;;;5115529;28;20223;-69
2021/03/04 07:46:29;;;;;;;17.93;11.80;;;10.00;99.90;;;;;;5116375;28;20223;-68
2021/03/04 07:48:56;;;;;;;19.77;12.03;;;10.50;99.90;;;;;;5116670;28;20211;-68
2021/03/04 07:51:23;;;;;;;19.37;11.10;;;11.00;99.00;;;;;;5116653;28;20211;-68
2021/03/04 07:53:49;;;;;;;18.20;11.17;;;11.30;98.10;;;;;;5118093;28;20620;-68
2021/03/04 07:56:27;;;;;;;15.93;10.87;;;11.50;97.50;;;;;;5116839;28;20239;-68
2021/03/04 07:58:54;;;;;;;22.27;11.30;;;11.50;97.20;;;;;;5115336;28;20565;-68
2021/03/04 08:01:20;;;;;;;16.17;10.73;;;11.60;97.00;;;;;;5116257;28;20210;-68
2021/03/04 08:03:48;;;;;;;19.77;11.87;;;11.50;97.00;;;;;;5115381;28;20226;-68
2021/03/04 08:06:15;;;;;;;15.23;10.73;;;11.40;97.00;;;;;;5115531;28;20230;-68
2021/03/04 08:08:45;;;;;;;17.87;10.53;;;11.30;97.10;;;;;;5115910;28;20211;-69
2021/03/04 08:11:22;;;;;;;16.23;10.57;;;11.20;97.40;;;;;;5115552;28;20310;-70
2021/03/04 08:13:48;;;;;;;16.13;10.90;;;11.20;97.40;;;;;;5115537;28;20191;-69
2021/03/04 08:16:16;;;;;;;15.50;10.80;;;11.20;97.30;;;;;;5115601;28;20741;-69
2021/03/04 08:18:43;;;;;;;17.40;10.43;;;11.20;97.10;;;;;;5115350;28;20256;-69
2021/03/04 08:21:09;;;;;;;23.30;11.73;;;11.30;97.10;;;;;;5114359;28;20296;-68
2021/03/04 08:23:43;;;;;;;17.77;10.87;;;11.50;96.80;;;;;;5114228;28;20238;-69
2021/03/04 08:26:20;;;;;;;15.77;9.87;;;11.70;96.50;;;;;;5114485;28;20223;-69
2021/03/04 08:28:46;;;;;;;16.40;9.70;;;11.90;96.60;;;;;;5113667;28;20602;-69
2021/03/04 08:31:13;;;;;;;13.13;9.87;;;12.10;95.80;;;;;;5114810;28;20302;-69
2021/03/04 08:33:40;;;;;;;15.40;9.57;;;12.30;95.50;;;;;;5114756;28;20207;-69
2021/03/04 08:36:06;;;;;;;12.60;9.17;;;12.40;95.20;;;;;;5114135;28;20602;-69
2021/03/04 08:38:39;;;;;;;15.70;10.03;;;12.40;94.70;;;;;;5114560;28;20207;-64
2021/03/04 08:41:06;;;;;;;13.27;8.67;;;12.40;94.40;;;;;;5112970;28;20630;-63
2021/03/04 08:43:32;;;;;;;12.30;8.63;;;12.60;94.20;;;;;;5112652;28;20223;-63
2021/03/04 08:46:01;;;;;;;15.10;9.00;;;12.70;93.60;;;;;;5112538;28;20314;-62
2021/03/04 08:48:28;;;;;;;13.50;9.07;;;13.00;93.20;;;;;;5112598;28;20222;-63
2021/03/04 08:50:58;;;;;;;13.30;8.40;;;13.20;92.60;;;;;;5112690;28;20215;-63
2021/03/04 08:53:28;;;;;;;15.83;8.30;;;13.40;91.40;;;;;;5112379;28;20709;-64
2021/03/04 08:55:55;;;;;;;14.13;7.33;;;13.60;90.70;;;;;;5113098;28;20231;-64
2021/03/04 08:58:24;;;;;;;12.73;6.30;;;13.90;89.10;;;;;;5112599;28;20572;-65
2021/03/04 09:00:52;;;;;;;15.30;7.50;;;14.10;83.50;;;;;;5113225;28;20576;-66
2021/03/04 09:03:19;;;;;;;14.00;7.07;;;14.30;81.70;;;;;;5112859;28;20886;-64
2021/03/04 09:05:45;;;;;;;10.30;7.07;;;14.50;80.00;;;;;;5112298;28;20243;-65
2021/03/04 09:08:13;;;;;;;12.10;6.80;;;14.70;78.70;;;;;;5112594;28;20211;-65
2021/03/04 09:10:42;;;;;;;12.80;7.47;;;14.80;77.40;;;;;;5112437;28;20591;-64
2021/03/04 09:13:08;;;;;;;10.97;7.10;;;14.90;76.80;;;;;;5111997;28;20199;-65
2021/03/04 09:15:35;;;;;;;14.93;7.63;;;15.00;76.40;;;;;;5112287;28;20239;-65
2021/03/04 09:18:06;;;;;;;12.33;6.47;;;15.10;75.40;;;;;;5110089;27;20249;-66
2021/03/04 09:20:34;;;;;;;13.20;6.50;;;15.30;75.50;;;;;;5112470;28;20276;-65
2021/03/04 09:23:00;;;;;;;11.17;6.97;;;15.40;74.30;;;;;;5112279;28;20251;-66
2021/03/04 09:25:26;;;;;;;10.40;6.90;;;15.60;73.60;;;;;;5111963;28;20223;-64
2021/03/04 09:27:53;;;;;;;14.60;7.27;;;15.80;73.50;;;;;;5111783;27;20208;-65
2021/03/04 09:30:27;;;;;;;13.63;6.60;;;16.10;72.80;;;;;;5111750;28;20207;-66
2021/03/04 09:32:55;;;;;;;9.57;5.97;;;16.40;71.50;;;;;;5112063;28;20747;-66
2021/03/04 09:35:21;;;;;;;11.57;6.33;;;16.60;68.20;;;;;;5111865;28;20223;-65
2021/03/04 09:37:48;;;;;;;11.17;6.77;;;16.90;67.20;;;;;;5111787;28;20207;-66
2021/03/04 09:40:23;;;;;;;15.73;7.17;;;17.10;66.50;;;;;;5110786;28;20671;-66
2021/03/04 09:42:49;;;;;;;10.67;6.43;;;17.20;66.60;;;;;;5111985;28;20207;-63
2021/03/04 09:45:16;;;;;;;14.77;8.27;;;17.30;66.40;;;;;;5111885;28;20239;-63
2021/03/04 09:47:43;;;;;;;12.33;6.60;;;17.40;66.00;;;;;;5111065;28;20212;-64
2021/03/04 09:50:18;;;;;;;13.13;8.13;;;17.30;66.10;;;;;;5111969;28;20199;-63
2021/03/04 09:52:45;;;;;;;11.70;6.70;;;17.30;65.90;;;;;;5111855;28;20243;-63
2021/03/04 09:55:15;;;;;;;15.47;7.43;;;17.30;66.00;;;;;;5110961;28;20235;-64
2021/03/04 09:57:42;;;;;;;14.33;6.80;;;17.40;66.10;;;;;;5111650;28;20442;-65
2021/03/04 10:00:25;;;;;;;12.67;7.17;;;17.40;66.40;;;;;;5093547;28;20578;-64
2021/03/04 10:02:53;;;;;;;13.93;7.30;;;17.40;66.80;;;;;;5111579;28;20226;-62
2021/03/04 10:05:21;;;;;;;17.97;7.77;;;17.30;66.70;;;;;;5111426;28;20315;-66
2021/03/04 10:07:49;;;;;;;16.57;8.17;;;17.20;67.20;;;;;;5111891;28;20204;-66
2021/03/04 10:10:18;;;;;;;16.40;7.83;;;17.20;66.60;;;;;;5112027;28;20586;-66
2021/03/04 10:12:51;;;;;;;12.63;7.60;;;17.10;67.30;;;;;;5112120;28;20204;-66
2021/03/04 10:15:29;;;;;;;14.63;8.23;;;17.20;67.50;;;;;;5111906;28;20235;-66
2021/03/04 10:17:55;;;;;;;13.60;7.87;;;17.20;67.70;;;;;;5111777;28;20590;-66
2021/03/04 10:20:24;;;;;;;17.03;8.10;;;17.20;68.30;;;;;;5111998;28;20195;-66
2021/03/04 10:22:50;;;;;;;15.50;8.13;;;17.20;67.80;;;;;;5112056;28;20216;-66
2021/03/04 10:25:17;;;;;;;14.90;8.07;;;17.20;67.60;;;;;;5111820;28;20420;-66
2021/03/04 10:27:43;;;;;;;16.07;8.70;;;17.30;67.70;;;;;;5112480;28;20219;-66
2021/03/04 10:30:11;;;;;;;14.43;7.57;;;17.30;67.90;;;;;;5112662;28;20204;-66
2021/03/04 10:32:38;;;;;;;17.17;9.20;;;17.30;67.20;;;;;;5114257;28;20264;-67
2021/03/04 10:35:06;;;;;;;17.67;8.80;;;17.30;68.60;;;;;;5112785;28;20230;-67
2021/03/04 10:37:33;;;;;;;15.93;8.37;;;17.20;69.00;;;;;;5112805;28;20207;-67
2021/03/04 10:40:00;;;;;;;13.10;8.53;;;17.20;69.20;;;;;;5111726;28;20208;-66
2021/03/04 10:42:26;;;;;;;22.20;9.73;;;17.30;69.60;;;;;;5111552;28;20210;-66
2021/03/04 10:44:54;;;;;;;18.27;9.57;;;17.30;70.30;;;;;;5111336;28;20246;-66
2021/03/04 10:47:21;;;;;;;16.27;8.60;;;17.30;70.10;;;;;;5111792;28;20208;-67
2021/03/04 10:49:47;;;;;;;16.50;9.93;;;17.30;70.50;;;;;;5111341;28;20203;-67
2021/03/04 10:52:13;;;;;;;17.83;10.37;;;17.30;70.60;;;;;;5114852;28;20207;-67
2021/03/04 10:54:40;;;;;;;19.43;10.13;;;17.30;71.60;;;;;;5115711;28;20735;-67
2021/03/04 10:57:07;;;;;;;21.50;10.40;;;17.30;71.70;;;;;;5115772;28;20215;-67
2021/03/04 10:59:33;;;;;;;18.63;9.70;;;17.40;71.30;;;;;;5115844;28;20626;-66
2021/03/04 11:01:59;;;;;;;20.40;11.00;;;17.60;70.50;;;;;;5115788;28;20203;-67
2021/03/04 11:04:25;;;;;;;17.20;11.10;;;17.70;71.50;;;;;;5115095;28;20281;-66
2021/03/04 11:06:51;;;;;;;24.23;11.67;;;17.70;71.40;;;;;;5115435;28;20211;-67
2021/03/04 11:09:17;;;;;;;17.07;11.17;;;17.70;71.70;;;;;;5115271;28;20601;-66
2021/03/04 11:11:45;;;;;;;19.90;10.37;;;17.70;71.20;;;;;;5115243;28;20216;-67
2021/03/04 11:14:11;;;;;;;20.10;10.60;;;17.80;70.90;;;;;;5115480;28;20203;-66
2021/03/04 11:16:37;;;;;;;20.07;11.20;;;17.80;71.40;;;;;;5115499;28;20215;-67
2021/03/04 11:19:04;;;;;;;18.90;10.70;;;17.80;71.50;;;;;;5115425;28;20211;-67
2021/03/04 11:21:30;;;;;;;24.00;11.13;;;17.90;72.50;;;;;;5115193;28;20252;-64
2021/03/04 11:23:56;;;;;;;19.70;10.73;;;18.00;71.10;;;;;;5111961;28;20228;-62
2021/03/04 11:26:23;;;;;;;18.07;10.83;;;18.00;70.90;;;;;;5114123;28;20230;-64
2021/03/04 11:28:50;;;;;;;18.57;10.30;;;17.90;71.60;;;;;;5114166;28;20203;-64
2021/03/04 11:31:16;;;;;;;15.47;9.53;;;17.90;71.20;;;;;;5114462;28;20199;-65
2021/03/04 11:33:42;;;;;;;21.40;10.13;;;17.90;71.40;;;;;;5114331;28;20260;-65
2021/03/04 11:36:08;;;;;;;19.03;10.40;;;18.00;71.80;;;;;;5113964;28;20223;-63
2021/03/04 11:38:34;;;;;;;21.57;10.93;;;18.10;71.50;;;;;;5113876;28;20305;-63
2021/03/04 11:41:01;;;;;;;22.03;10.13;;;18.10;71.50;;;;;;5113626;28;20207;-62
2021/03/04 11:43:27;;;;;;;25.37;11.17;;;18.30;71.60;;;;;;5113756;28;20595;-63
2021/03/04 11:45:54;;;;;;;21.70;10.40;;;18.30;72.00;;;;;;5113943;28;20220;-62
2021/03/04 11:48:20;;;;;;;20.60;10.07;;;18.50;69.70;;;;;;5114007;28;20391;-63
2021/03/04 11:50:47;;;;;;;17.17;9.48;;;18.70;68.10;;;;;;5113948;28;20211;-63
2021/03/04 11:53:13;;;;;;;20.67;8.82;;;18.90;68.30;;;;;;5114073;28;20288;-63
2021/03/04 11:55:39;;;;;;;14.05;7.30;;;19.20;66.40;;;;;;5113354;28;20675;-65
2021/03/04 11:58:05;;;;;;;18.05;8.52;;;19.50;63.10;;;;;;5113383;28;20419;-64
2021/03/04 12:00:32;;;;;;;22.02;7.53;;;19.60;63.10;;;;;;5113687;28;20204;-62
2021/03/04 12:02:59;;;;;;;15.38;6.38;;;19.40;61.80;;;;;;5112573;28;20269;-63
2021/03/04 12:05:25;;;;;;;21.13;6.05;;;19.40;61.00;;;;;;5113431;28;20230;-62
2021/03/04 12:07:51;;;;;;;18.17;6.65;;;19.20;59.70;;;;;;5113460;28;20234;-64
2021/03/04 12:10:18;;;;;;;16.38;6.38;;;19.20;59.80;;;;;;5113225;28;20236;-63
2021/03/04 12:12:44;;;;;;;17.75;6.13;;;19.20;60.50;;;;;;5113278;28;20211;-65
2021/03/04 12:15:11;;;;;;;15.77;5.63;;;19.10;59.70;;;;;;5113087;28;20227;-64
2021/03/04 12:17:37;;;;;;;15.57;5.35;;;19.00;59.20;;;;;;5113402;28;20210;-65
2021/03/04 12:20:06;;;;;;;16.92;5.68;;;18.80;57.60;;;;;;5113203;28;20244;-65
2021/03/04 12:22:32;;;;;;;14.98;5.50;;;18.80;57.90;;;;;;5113237;28;20233;-65
2021/03/04 12:24:59;;;;;;;16.73;6.17;;;18.80;58.40;;;;;;5112415;28;20227;-63
2021/03/04 12:27:25;;;;;;;14.05;6.13;;;18.90;58.70;;;;;;5107578;28;20345;-64
2021/03/04 12:29:51;;;;;;;12.90;5.93;;;19.20;58.30;;;;;;5092605;28;20204;-64
2021/03/04 12:32:18;;;;;;;12.82;6.30;;;19.20;58.30;;;;;;5092662;28;20281;-64
2021/03/04 12:34:45;;;;;;;13.43;7.43;;;19.20;58.60;;;;;;5092328;28;20224;-64
2021/03/04 12:37:12;;;;;;;17.38;6.78;;;19.20;59.20;;;;;;5092492;28;20208;-64
2021/03/04 12:39:38;;;;;;;15.50;6.23;;;19.20;58.70;;;;;;5092362;28;20205;-63
2021/03/04 12:42:04;;;;;;;15.77;5.32;;;19.30;58.90;;;;;;5092716;28;20668;-64